sensor_id;sensor_type;location;lat;lon;timestamp;pressure;altitude;pressure_sealevel;temperature
18219;BMP180;9234;49.344;11.120;2023-06-19T00:01:57;97163.00;;;20.30
18219;BMP180;9234;49.344;11.120;2023-06-19T00:04:26;97165.00;;;20.30
18219;BMP180;9234;49.344;11.120;2023-06-19T00:06:55;97162.00;;;20.30
18219;BMP180;9234;49.344;11.120;2023-06-19T00:09:23;97162.00;;;20.30
18219;BMP180;9234;49.344;11.120;2023-06-19T00:11:51;97161.00;;;20.30
18219;BMP180;9234;49.344;11.120;2023-06-19T00:14:19;97164.00;;;20.30
18219;BMP180;9234;49.344;11.120;2023-06-19T00:16:48;97167.00;;;20.30
18219;BMP180;9234;49.344;11.120;2023-06-19T00:19:17;97162.00;;;20.30
18219;BMP180;9234;49.344;11.120;2023-06-19T00:21:47;97146.00;;;20.30
18219;BMP180;9234;49.344;11.120;2023-06-19T00:24:15;97150.00;;;20.30
18219;BMP180;9234;49.344;11.120;2023-06-19T00:26:43;97150.00;;;20.30
18219;BMP180;9234;49.344;11.120;2023-06-19T00:29:11;97169.00;;;20.30
18219;BMP180;9234;49.344;11.120;2023-06-19T00:31:40;97156.00;;;20.30
18219;BMP180;9234;49.344;11.120;2023-06-19T00:34:09;97152.00;;;20.30
18219;BMP180;9234;49.344;11.120;2023-06-19T00:36:37;97159.00;;;20.30
18219;BMP180;9234;49.344;11.120;2023-06-19T00:39:10;97150.00;;;20.30
18219;BMP180;9234;49.344;11.120;2023-06-19T00:41:40;97155.00;;;20.20
18219;BMP180;9234;49.344;11.120;2023-06-19T00:44:11;97154.00;;;20.20
18219;BMP180;9234;49.344;11.120;2023-06-19T00:46:41;97149.00;;;20.20
18219;BMP180;9234;49.344;11.120;2023-06-19T00:49:09;97159.00;;;20.10
18219;BMP180;9234;49.344;11.120;2023-06-19T00:51:38;97160.00;;;20.10
18219;BMP180;9234;49.344;11.120;2023-06-19T00:54:07;97162.00;;;20.10
18219;BMP180;9234;49.344;11.120;2023-06-19T00:56:38;97174.00;;;20.00
18219;BMP180;9234;49.344;11.120;2023-06-19T00:59:19;97163.00;;;20.00
18219;BMP180;9234;49.344;11.120;2023-06-19T01:01:47;97174.00;;;19.90
18219;BMP180;9234;49.344;11.120;2023-06-19T01:04:16;97173.00;;;19.90
18219;BMP180;9234;49.344;11.120;2023-06-19T01:06:52;97167.00;;;19.90
18219;BMP180;9234;49.344;11.120;2023-06-19T01:09:29;97156.00;;;19.80
18219;BMP180;9234;49.344;11.120;2023-06-19T01:12:08;97165.00;;;19.80
18219;BMP180;9234;49.344;11.120;2023-06-19T01:14:50;97155.00;;;19.80
18219;BMP180;9234;49.344;11.120;2023-06-19T01:17:23;97155.00;;;19.70
18219;BMP180;9234;49.344;11.120;2023-06-19T01:19:54;97152.00;;;19.70
18219;BMP180;9234;49.344;11.120;2023-06-19T01:22:26;97152.00;;;19.60
18219;BMP180;9234;49.344;11.120;2023-06-19T01:24:58;97153.00;;;19.60
18219;BMP180;9234;49.344;11.120;2023-06-19T01:27:27;97149.00;;;19.60
18219;BMP180;9234;49.344;11.120;2023-06-19T01:30:02;97164.00;;;19.50
18219;BMP180;9234;49.344;11.120;2023-06-19T01:32:41;97147.00;;;19.50
18219;BMP180;9234;49.344;11.120;2023-06-19T01:35:17;97160.00;;;19.50
18219;BMP180;9234;49.344;11.120;2023-06-19T01:37:50;97150.00;;;19.50
18219;BMP180;9234;49.344;11.120;2023-06-19T01:40:23;97150.00;;;19.50
18219;BMP180;9234;49.344;11.120;2023-06-19T01:42:54;97144.00;;;19.50
18219;BMP180;9234;49.344;11.120;2023-06-19T01:45:23;97146.00;;;19.50
18219;BMP180;9234;49.344;11.120;2023-06-19T01:47:52;97148.00;;;19.50
18219;BMP180;9234;49.344;11.120;2023-06-19T01:50:21;97160.00;;;19.50
18219;BMP180;9234;49.344;11.120;2023-06-19T01:52:52;97151.00;;;19.50
18219;BMP180;9234;49.344;11.120;2023-06-19T01:55:21;97151.00;;;19.50
18219;BMP180;9234;49.344;11.120;2023-06-19T01:57:49;97158.00;;;19.50
18219;BMP180;9234;49.344;11.120;2023-06-19T02:00:18;97153.00;;;19.50
18219;BMP180;9234;49.344;11.120;2023-06-19T02:02:47;97158.00;;;19.50
18219;BMP180;9234;49.344;11.120;2023-06-19T02:05:17;97153.00;;;19.50
18219;BMP180;9234;49.344;11.120;2023-06-19T02:07:45;97159.00;;;19.40
18219;BMP180;9234;49.344;11.120;2023-06-19T02:10:17;97158.00;;;19.40
18219;BMP180;9234;49.344;11.120;2023-06-19T02:12:45;97169.00;;;19.40
18219;BMP180;9234;49.344;11.120;2023-06-19T02:15:13;97157.00;;;19.40
18219;BMP180;9234;49.344;11.120;2023-06-19T02:17:41;97158.00;;;19.30
18219;BMP180;9234;49.344;11.120;2023-06-19T02:20:11;97177.00;;;19.30
18219;BMP180;9234;49.344;11.120;2023-06-19T02:22:40;97161.00;;;19.30
18219;BMP180;9234;49.344;11.120;2023-06-19T02:25:09;97158.00;;;19.30
18219;BMP180;9234;49.344;11.120;2023-06-19T02:27:44;97170.00;;;19.20
18219;BMP180;9234;49.344;11.120;2023-06-19T02:30:13;97157.00;;;19.20
18219;BMP180;9234;49.344;11.120;2023-06-19T02:32:41;97171.00;;;19.10
18219;BMP180;9234;49.344;11.120;2023-06-19T02:35:10;97166.00;;;19.10
18219;BMP180;9234;49.344;11.120;2023-06-19T02:37:39;97164.00;;;19.00
18219;BMP180;9234;49.344;11.120;2023-06-19T02:40:09;97158.00;;;19.00
18219;BMP180;9234;49.344;11.120;2023-06-19T02:42:37;97173.00;;;19.00
18219;BMP180;9234;49.344;11.120;2023-06-19T02:45:08;97156.00;;;18.90
18219;BMP180;9234;49.344;11.120;2023-06-19T02:47:37;97153.00;;;18.90
18219;BMP180;9234;49.344;11.120;2023-06-19T02:50:06;97159.00;;;18.90
18219;BMP180;9234;49.344;11.120;2023-06-19T02:52:36;97159.00;;;18.90
18219;BMP180;9234;49.344;11.120;2023-06-19T02:55:04;97152.00;;;18.90
18219;BMP180;9234;49.344;11.120;2023-06-19T02:57:34;97163.00;;;18.90
18219;BMP180;9234;49.344;11.120;2023-06-19T03:00:04;97166.00;;;19.00
18219;BMP180;9234;49.344;11.120;2023-06-19T03:02:35;97168.00;;;19.00
18219;BMP180;9234;49.344;11.120;2023-06-19T03:05:04;97166.00;;;19.00
18219;BMP180;9234;49.344;11.120;2023-06-19T03:07:33;97168.00;;;19.10
18219;BMP180;9234;49.344;11.120;2023-06-19T03:10:02;97166.00;;;19.10
18219;BMP180;9234;49.344;11.120;2023-06-19T03:12:31;97183.00;;;19.20
18219;BMP180;9234;49.344;11.120;2023-06-19T03:15:00;97185.00;;;19.20
18219;BMP180;9234;49.344;11.120;2023-06-19T03:17:30;97176.00;;;19.30
18219;BMP180;9234;49.344;11.120;2023-06-19T03:20:00;97186.00;;;19.30
18219;BMP180;9234;49.344;11.120;2023-06-19T03:22:29;97181.00;;;19.30
18219;BMP180;9234;49.344;11.120;2023-06-19T03:24:57;97187.00;;;19.40
18219;BMP180;9234;49.344;11.120;2023-06-19T03:27:25;97192.00;;;19.40
18219;BMP180;9234;49.344;11.120;2023-06-19T03:29:54;97201.00;;;19.40
18219;BMP180;9234;49.344;11.120;2023-06-19T03:32:32;97201.00;;;19.50
18219;BMP180;9234;49.344;11.120;2023-06-19T03:35:03;97197.00;;;19.50
18219;BMP180;9234;49.344;11.120;2023-06-19T03:37:35;97201.00;;;19.50
18219;BMP180;9234;49.344;11.120;2023-06-19T03:40:05;97216.00;;;19.50
18219;BMP180;9234;49.344;11.120;2023-06-19T03:42:39;97209.00;;;19.50
18219;BMP180;9234;49.344;11.120;2023-06-19T03:45:09;97209.00;;;19.50
18219;BMP180;9234;49.344;11.120;2023-06-19T03:47:37;97207.00;;;19.50
18219;BMP180;9234;49.344;11.120;2023-06-19T03:50:08;97220.00;;;19.50
18219;BMP180;9234;49.344;11.120;2023-06-19T03:52:47;97225.00;;;19.50
18219;BMP180;9234;49.344;11.120;2023-06-19T03:55:16;97241.00;;;19.40
18219;BMP180;9234;49.344;11.120;2023-06-19T03:57:44;97248.00;;;19.40
18219;BMP180;9234;49.344;11.120;2023-06-19T04:00:14;97257.00;;;19.40
18219;BMP180;9234;49.344;11.120;2023-06-19T04:02:43;97273.00;;;19.40
18219;BMP180;9234;49.344;11.120;2023-06-19T04:05:15;97265.00;;;19.40
18219;BMP180;9234;49.344;11.120;2023-06-19T04:07:43;97262.00;;;19.50
18219;BMP180;9234;49.344;11.120;2023-06-19T04:10:14;97253.00;;;19.50
18219;BMP180;9234;49.344;11.120;2023-06-19T04:12:42;97252.00;;;19.60
18219;BMP180;9234;49.344;11.120;2023-06-19T04:15:12;97252.00;;;19.70
18219;BMP180;9234;49.344;11.120;2023-06-19T04:17:40;97256.00;;;19.80
18219;BMP180;9234;49.344;11.120;2023-06-19T04:20:10;97257.00;;;19.90
18219;BMP180;9234;49.344;11.120;2023-06-19T04:22:41;97266.00;;;20.00
18219;BMP180;9234;49.344;11.120;2023-06-19T04:25:10;97261.00;;;20.00
18219;BMP180;9234;49.344;11.120;2023-06-19T04:27:39;97262.00;;;20.10
18219;BMP180;9234;49.344;11.120;2023-06-19T04:30:08;97259.00;;;20.10
18219;BMP180;9234;49.344;11.120;2023-06-19T04:32:36;97261.00;;;20.10
18219;BMP180;9234;49.344;11.120;2023-06-19T04:35:08;97266.00;;;20.10
18219;BMP180;9234;49.344;11.120;2023-06-19T04:37:37;97258.00;;;20.10
18219;BMP180;9234;49.344;11.120;2023-06-19T04:40:08;97262.00;;;20.10
18219;BMP180;9234;49.344;11.120;2023-06-19T04:42:38;97270.00;;;20.10
18219;BMP180;9234;49.344;11.120;2023-06-19T04:45:08;97262.00;;;20.20
18219;BMP180;9234;49.344;11.120;2023-06-19T04:47:36;97276.00;;;20.20
18219;BMP180;9234;49.344;11.120;2023-06-19T04:50:19;97272.00;;;20.30
18219;BMP180;9234;49.344;11.120;2023-06-19T04:52:48;97276.00;;;20.40
18219;BMP180;9234;49.344;11.120;2023-06-19T04:55:20;97279.00;;;20.50
18219;BMP180;9234;49.344;11.120;2023-06-19T04:57:48;97264.00;;;20.60
18219;BMP180;9234;49.344;11.120;2023-06-19T05:00:17;97276.00;;;20.70
18219;BMP180;9234;49.344;11.120;2023-06-19T05:02:47;97278.00;;;20.90
18219;BMP180;9234;49.344;11.120;2023-06-19T05:05:16;97286.00;;;21.10
18219;BMP180;9234;49.344;11.120;2023-06-19T05:07:47;97271.00;;;21.20
18219;BMP180;9234;49.344;11.120;2023-06-19T05:10:16;97290.00;;;21.40
18219;BMP180;9234;49.344;11.120;2023-06-19T05:12:45;97277.00;;;21.60
18219;BMP180;9234;49.344;11.120;2023-06-19T05:15:14;97287.00;;;21.70
18219;BMP180;9234;49.344;11.120;2023-06-19T05:17:42;97294.00;;;21.80
18219;BMP180;9234;49.344;11.120;2023-06-19T05:20:14;97282.00;;;22.00
18219;BMP180;9234;49.344;11.120;2023-06-19T05:22:43;97288.00;;;22.10
18219;BMP180;9234;49.344;11.120;2023-06-19T05:25:12;97288.00;;;22.20
18219;BMP180;9234;49.344;11.120;2023-06-19T05:27:40;97290.00;;;22.30
18219;BMP180;9234;49.344;11.120;2023-06-19T05:30:11;97299.00;;;22.50
18219;BMP180;9234;49.344;11.120;2023-06-19T05:32:40;97290.00;;;22.60
18219;BMP180;9234;49.344;11.120;2023-06-19T05:35:08;97295.00;;;22.70
18219;BMP180;9234;49.344;11.120;2023-06-19T05:37:41;97285.00;;;22.70
18219;BMP180;9234;49.344;11.120;2023-06-19T05:40:11;97296.00;;;22.80
18219;BMP180;9234;49.344;11.120;2023-06-19T05:42:40;97290.00;;;22.90
18219;BMP180;9234;49.344;11.120;2023-06-19T05:45:10;97302.00;;;23.00
18219;BMP180;9234;49.344;11.120;2023-06-19T05:47:39;97302.00;;;23.10
18219;BMP180;9234;49.344;11.120;2023-06-19T05:50:08;97299.00;;;23.20
18219;BMP180;9234;49.344;11.120;2023-06-19T05:52:36;97315.00;;;23.30
18219;BMP180;9234;49.344;11.120;2023-06-19T05:55:09;97310.00;;;23.30
18219;BMP180;9234;49.344;11.120;2023-06-19T05:57:37;97321.00;;;23.40
18219;BMP180;9234;49.344;11.120;2023-06-19T06:00:09;97326.00;;;23.50
18219;BMP180;9234;49.344;11.120;2023-06-19T06:02:41;97339.00;;;23.60
18219;BMP180;9234;49.344;11.120;2023-06-19T06:05:09;97323.00;;;23.60
18219;BMP180;9234;49.344;11.120;2023-06-19T06:07:37;97340.00;;;23.60
18219;BMP180;9234;49.344;11.120;2023-06-19T06:10:08;97354.00;;;23.70
18219;BMP180;9234;49.344;11.120;2023-06-19T06:12:37;97352.00;;;23.70
18219;BMP180;9234;49.344;11.120;2023-06-19T06:15:06;97355.00;;;23.70
18219;BMP180;9234;49.344;11.120;2023-06-19T06:17:36;97350.00;;;23.70
18219;BMP180;9234;49.344;11.120;2023-06-19T06:20:06;97349.00;;;23.70
18219;BMP180;9234;49.344;11.120;2023-06-19T06:22:40;97357.00;;;23.60
18219;BMP180;9234;49.344;11.120;2023-06-19T06:25:09;97344.00;;;23.60
18219;BMP180;9234;49.344;11.120;2023-06-19T06:27:40;97347.00;;;23.60
18219;BMP180;9234;49.344;11.120;2023-06-19T06:30:10;97355.00;;;23.60
18219;BMP180;9234;49.344;11.120;2023-06-19T06:32:40;97357.00;;;23.70
18219;BMP180;9234;49.344;11.120;2023-06-19T06:35:09;97376.00;;;23.70
18219;BMP180;9234;49.344;11.120;2023-06-19T06:37:37;97359.00;;;23.70
18219;BMP180;9234;49.344;11.120;2023-06-19T06:40:07;97379.00;;;23.70
18219;BMP180;9234;49.344;11.120;2023-06-19T06:42:38;97368.00;;;23.80
18219;BMP180;9234;49.344;11.120;2023-06-19T06:45:07;97387.00;;;23.90
18219;BMP180;9234;49.344;11.120;2023-06-19T06:47:36;97386.00;;;23.90
18219;BMP180;9234;49.344;11.120;2023-06-19T06:50:07;97382.00;;;24.00
18219;BMP180;9234;49.344;11.120;2023-06-19T06:52:36;97388.00;;;24.10
18219;BMP180;9234;49.344;11.120;2023-06-19T06:55:07;97389.00;;;24.30
18219;BMP180;9234;49.344;11.120;2023-06-19T06:57:35;97387.00;;;24.40
18219;BMP180;9234;49.344;11.120;2023-06-19T07:00:06;97377.00;;;24.60
18219;BMP180;9234;49.344;11.120;2023-06-19T07:02:38;97374.00;;;24.70
18219;BMP180;9234;49.344;11.120;2023-06-19T07:05:11;97388.00;;;24.80
18219;BMP180;9234;49.344;11.120;2023-06-19T07:07:39;97381.00;;;25.00
18219;BMP180;9234;49.344;11.120;2023-06-19T07:10:09;97392.00;;;25.10
18219;BMP180;9234;49.344;11.120;2023-06-19T07:12:45;97372.00;;;25.20
18219;BMP180;9234;49.344;11.120;2023-06-19T07:15:14;97379.00;;;25.30
18219;BMP180;9234;49.344;11.120;2023-06-19T07:17:44;97385.00;;;25.40
18219;BMP180;9234;49.344;11.120;2023-06-19T07:20:15;97396.00;;;25.50
18219;BMP180;9234;49.344;11.120;2023-06-19T07:22:44;97384.00;;;25.60
18219;BMP180;9234;49.344;11.120;2023-06-19T07:25:13;97397.00;;;25.70
18219;BMP180;9234;49.344;11.120;2023-06-19T07:27:42;97400.00;;;25.70
18219;BMP180;9234;49.344;11.120;2023-06-19T07:30:11;97396.00;;;25.80
18219;BMP180;9234;49.344;11.120;2023-06-19T07:32:46;97389.00;;;25.90
18219;BMP180;9234;49.344;11.120;2023-06-19T07:35:16;97392.00;;;26.00
18219;BMP180;9234;49.344;11.120;2023-06-19T07:37:45;97402.00;;;26.20
18219;BMP180;9234;49.344;11.120;2023-06-19T07:40:13;97404.00;;;26.30
18219;BMP180;9234;49.344;11.120;2023-06-19T07:42:41;97416.00;;;26.40
18219;BMP180;9234;49.344;11.120;2023-06-19T07:45:12;97413.00;;;26.50
18219;BMP180;9234;49.344;11.120;2023-06-19T07:47:41;97416.00;;;26.60
18219;BMP180;9234;49.344;11.120;2023-06-19T07:50:10;97414.00;;;26.70
18219;BMP180;9234;49.344;11.120;2023-06-19T07:52:39;97417.00;;;26.90
18219;BMP180;9234;49.344;11.120;2023-06-19T07:55:08;97414.00;;;27.10
18219;BMP180;9234;49.344;11.120;2023-06-19T07:57:36;97415.00;;;27.30
18219;BMP180;9234;49.344;11.120;2023-06-19T08:00:06;97422.00;;;27.50
18219;BMP180;9234;49.344;11.120;2023-06-19T08:02:38;97427.00;;;27.70
18219;BMP180;9234;49.344;11.120;2023-06-19T08:05:08;97424.00;;;27.80
18219;BMP180;9234;49.344;11.120;2023-06-19T08:07:39;97436.00;;;27.90
18219;BMP180;9234;49.344;11.120;2023-06-19T08:10:08;97430.00;;;28.10
18219;BMP180;9234;49.344;11.120;2023-06-19T08:12:41;97433.00;;;28.20
18219;BMP180;9234;49.344;11.120;2023-06-19T08:15:10;97427.00;;;28.20
18219;BMP180;9234;49.344;11.120;2023-06-19T08:17:41;97436.00;;;28.20
18219;BMP180;9234;49.344;11.120;2023-06-19T08:20:12;97439.00;;;28.10
18219;BMP180;9234;49.344;11.120;2023-06-19T08:22:41;97434.00;;;28.10
18219;BMP180;9234;49.344;11.120;2023-06-19T08:25:10;97428.00;;;28.00
18219;BMP180;9234;49.344;11.120;2023-06-19T08:27:38;97435.00;;;28.00
18219;BMP180;9234;49.344;11.120;2023-06-19T08:30:08;97434.00;;;28.00
18219;BMP180;9234;49.344;11.120;2023-06-19T08:32:36;97435.00;;;28.00
18219;BMP180;9234;49.344;11.120;2023-06-19T08:35:05;97427.00;;;28.00
18219;BMP180;9234;49.344;11.120;2023-06-19T08:37:34;97448.00;;;27.90
18219;BMP180;9234;49.344;11.120;2023-06-19T08:40:05;97456.00;;;27.90
18219;BMP180;9234;49.344;11.120;2023-06-19T08:42:36;97443.00;;;27.90
18219;BMP180;9234;49.344;11.120;2023-06-19T08:45:07;97450.00;;;27.90
18219;BMP180;9234;49.344;11.120;2023-06-19T08:47:38;97439.00;;;27.90
18219;BMP180;9234;49.344;11.120;2023-06-19T08:50:07;97443.00;;;28.00
18219;BMP180;9234;49.344;11.120;2023-06-19T08:52:36;97447.00;;;28.20
18219;BMP180;9234;49.344;11.120;2023-06-19T08:55:07;97439.00;;;28.30
18219;BMP180;9234;49.344;11.120;2023-06-19T08:57:37;97437.00;;;28.50
18219;BMP180;9234;49.344;11.120;2023-06-19T09:00:08;97436.00;;;28.60
18219;BMP180;9234;49.344;11.120;2023-06-19T09:02:41;97447.00;;;28.80
18219;BMP180;9234;49.344;11.120;2023-06-19T09:05:16;97441.00;;;29.00
18219;BMP180;9234;49.344;11.120;2023-06-19T09:07:54;97440.00;;;29.30
18219;BMP180;9234;49.344;11.120;2023-06-19T09:10:24;97447.00;;;29.60
18219;BMP180;9234;49.344;11.120;2023-06-19T09:12:58;97439.00;;;29.80
18219;BMP180;9234;49.344;11.120;2023-06-19T09:15:29;97432.00;;;30.00
18219;BMP180;9234;49.344;11.120;2023-06-19T09:18:04;97434.00;;;30.10
18219;BMP180;9234;49.344;11.120;2023-06-19T09:20:38;97440.00;;;30.10
18219;BMP180;9234;49.344;11.120;2023-06-19T09:23:09;97437.00;;;30.20
18219;BMP180;9234;49.344;11.120;2023-06-19T09:25:47;97435.00;;;30.20
18219;BMP180;9234;49.344;11.120;2023-06-19T09:28:20;97430.00;;;30.20
18219;BMP180;9234;49.344;11.120;2023-06-19T09:30:58;97435.00;;;30.20
18219;BMP180;9234;49.344;11.120;2023-06-19T09:33:28;97431.00;;;30.10
18219;BMP180;9234;49.344;11.120;2023-06-19T09:35:59;97431.00;;;30.20
18219;BMP180;9234;49.344;11.120;2023-06-19T09:38:29;97431.00;;;30.20
18219;BMP180;9234;49.344;11.120;2023-06-19T09:41:03;97426.00;;;30.20
18219;BMP180;9234;49.344;11.120;2023-06-19T09:43:36;97431.00;;;30.30
18219;BMP180;9234;49.344;11.120;2023-06-19T09:46:07;97437.00;;;30.40
18219;BMP180;9234;49.344;11.120;2023-06-19T09:48:41;97440.00;;;30.50
18219;BMP180;9234;49.344;11.120;2023-06-19T09:51:17;97427.00;;;30.60
18219;BMP180;9234;49.344;11.120;2023-06-19T09:53:47;97426.00;;;30.70
18219;BMP180;9234;49.344;11.120;2023-06-19T09:56:17;97423.00;;;30.80
18219;BMP180;9234;49.344;11.120;2023-06-19T09:58:51;97418.00;;;30.90
18219;BMP180;9234;49.344;11.120;2023-06-19T10:01:21;97423.00;;;31.00
18219;BMP180;9234;49.344;11.120;2023-06-19T10:04:02;97431.00;;;31.20
18219;BMP180;9234;49.344;11.120;2023-06-19T10:06:31;97430.00;;;31.40
18219;BMP180;9234;49.344;11.120;2023-06-19T10:09:08;97440.00;;;31.50
18219;BMP180;9234;49.344;11.120;2023-06-19T10:11:49;97429.00;;;31.60
18219;BMP180;9234;49.344;11.120;2023-06-19T10:14:20;97429.00;;;31.70
18219;BMP180;9234;49.344;11.120;2023-06-19T10:16:48;97422.00;;;31.80
18219;BMP180;9234;49.344;11.120;2023-06-19T10:19:21;97432.00;;;32.00
18219;BMP180;9234;49.344;11.120;2023-06-19T10:21:53;97423.00;;;32.10
18219;BMP180;9234;49.344;11.120;2023-06-19T10:24:25;97432.00;;;32.20
18219;BMP180;9234;49.344;11.120;2023-06-19T10:27:01;97423.00;;;32.30
18219;BMP180;9234;49.344;11.120;2023-06-19T10:29:38;97423.00;;;32.30
18219;BMP180;9234;49.344;11.120;2023-06-19T10:32:11;97426.00;;;32.40
18219;BMP180;9234;49.344;11.120;2023-06-19T10:34:39;97419.00;;;32.70
18219;BMP180;9234;49.344;11.120;2023-06-19T10:37:08;97415.00;;;33.00
18219;BMP180;9234;49.344;11.120;2023-06-19T10:39:36;97413.00;;;33.20
18219;BMP180;9234;49.344;11.120;2023-06-19T10:42:08;97404.00;;;33.50
18219;BMP180;9234;49.344;11.120;2023-06-19T10:44:36;97400.00;;;33.70
18219;BMP180;9234;49.344;11.120;2023-06-19T10:47:06;97390.00;;;33.90
18219;BMP180;9234;49.344;11.120;2023-06-19T10:49:35;97391.00;;;34.10
18219;BMP180;9234;49.344;11.120;2023-06-19T10:52:04;97393.00;;;34.30
18219;BMP180;9234;49.344;11.120;2023-06-19T10:54:33;97379.00;;;34.40
18219;BMP180;9234;49.344;11.120;2023-06-19T10:57:04;97390.00;;;34.40
18219;BMP180;9234;49.344;11.120;2023-06-19T10:59:35;97393.00;;;34.50
18219;BMP180;9234;49.344;11.120;2023-06-19T11:02:03;97392.00;;;34.60
18219;BMP180;9234;49.344;11.120;2023-06-19T11:04:37;97390.00;;;34.70
18219;BMP180;9234;49.344;11.120;2023-06-19T11:07:08;97391.00;;;34.70
18219;BMP180;9234;49.344;11.120;2023-06-19T11:09:36;97387.00;;;34.70
18219;BMP180;9234;49.344;11.120;2023-06-19T11:12:06;97388.00;;;34.70
18219;BMP180;9234;49.344;11.120;2023-06-19T11:14:37;97381.00;;;34.80
18219;BMP180;9234;49.344;11.120;2023-06-19T11:17:08;97392.00;;;34.90
18219;BMP180;9234;49.344;11.120;2023-06-19T11:19:37;97385.00;;;35.00
18219;BMP180;9234;49.344;11.120;2023-06-19T11:22:09;97375.00;;;35.30
18219;BMP180;9234;49.344;11.120;2023-06-19T11:24:43;97391.00;;;35.40
18219;BMP180;9234;49.344;11.120;2023-06-19T11:27:22;97387.00;;;35.70
18219;BMP180;9234;49.344;11.120;2023-06-19T11:29:59;97393.00;;;35.90
18219;BMP180;9234;49.344;11.120;2023-06-19T11:32:32;97387.00;;;36.10
18219;BMP180;9234;49.344;11.120;2023-06-19T11:35:07;97378.00;;;36.20
18219;BMP180;9234;49.344;11.120;2023-06-19T11:37:36;97379.00;;;36.20
18219;BMP180;9234;49.344;11.120;2023-06-19T11:40:09;97379.00;;;36.40
18219;BMP180;9234;49.344;11.120;2023-06-19T11:42:48;97366.00;;;36.60
18219;BMP180;9234;49.344;11.120;2023-06-19T11:45:18;97368.00;;;36.80
18219;BMP180;9234;49.344;11.120;2023-06-19T11:47:52;97367.00;;;36.90
18219;BMP180;9234;49.344;11.120;2023-06-19T11:50:27;97374.00;;;37.00
18219;BMP180;9234;49.344;11.120;2023-06-19T11:52:57;97372.00;;;37.20
18219;BMP180;9234;49.344;11.120;2023-06-19T11:55:27;97360.00;;;37.30
18219;BMP180;9234;49.344;11.120;2023-06-19T11:57:59;97354.00;;;37.50
18219;BMP180;9234;49.344;11.120;2023-06-19T12:00:29;97357.00;;;37.70
18219;BMP180;9234;49.344;11.120;2023-06-19T12:02:57;97355.00;;;37.90
18219;BMP180;9234;49.344;11.120;2023-06-19T12:05:26;97354.00;;;38.20
18219;BMP180;9234;49.344;11.120;2023-06-19T12:07:57;97351.00;;;38.20
18219;BMP180;9234;49.344;11.120;2023-06-19T12:10:29;97347.00;;;38.40
18219;BMP180;9234;49.344;11.120;2023-06-19T12:12:57;97352.00;;;38.50
18219;BMP180;9234;49.344;11.120;2023-06-19T12:15:25;97347.00;;;38.70
18219;BMP180;9234;49.344;11.120;2023-06-19T12:17:55;97339.00;;;38.80
18219;BMP180;9234;49.344;11.120;2023-06-19T12:20:25;97341.00;;;38.90
18219;BMP180;9234;49.344;11.120;2023-06-19T12:22:54;97333.00;;;39.00
18219;BMP180;9234;49.344;11.120;2023-06-19T12:25:23;97340.00;;;39.00
18219;BMP180;9234;49.344;11.120;2023-06-19T12:27:51;97335.00;;;39.20
18219;BMP180;9234;49.344;11.120;2023-06-19T12:30:21;97334.00;;;39.30
18219;BMP180;9234;49.344;11.120;2023-06-19T12:32:51;97342.00;;;39.30
18219;BMP180;9234;49.344;11.120;2023-06-19T12:35:21;97337.00;;;39.10
18219;BMP180;9234;49.344;11.120;2023-06-19T12:37:50;97339.00;;;39.00
18219;BMP180;9234;49.344;11.120;2023-06-19T12:40:19;97333.00;;;39.10
18219;BMP180;9234;49.344;11.120;2023-06-19T12:42:47;97327.00;;;39.40
18219;BMP180;9234;49.344;11.120;2023-06-19T12:45:17;97331.00;;;39.70
18219;BMP180;9234;49.344;11.120;2023-06-19T12:47:46;97327.00;;;39.80
18219;BMP180;9234;49.344;11.120;2023-06-19T12:50:14;97319.00;;;39.60
18219;BMP180;9234;49.344;11.120;2023-06-19T12:52:44;97324.00;;;39.60
18219;BMP180;9234;49.344;11.120;2023-06-19T12:55:12;97326.00;;;39.40
18219;BMP180;9234;49.344;11.120;2023-06-19T12:57:41;97324.00;;;39.10
18219;BMP180;9234;49.344;11.120;2023-06-19T13:00:12;97327.00;;;38.50
18219;BMP180;9234;49.344;11.120;2023-06-19T13:02:41;97324.00;;;37.90
18219;BMP180;9234;49.344;11.120;2023-06-19T13:05:10;97323.00;;;37.30
18219;BMP180;9234;49.344;11.120;2023-06-19T13:07:38;97320.00;;;36.70
18219;BMP180;9234;49.344;11.120;2023-06-19T13:10:12;97321.00;;;36.10
18219;BMP180;9234;49.344;11.120;2023-06-19T13:12:40;97318.00;;;35.60
18219;BMP180;9234;49.344;11.120;2023-06-19T13:15:09;97319.00;;;35.10
18219;BMP180;9234;49.344;11.120;2023-06-19T13:17:38;97317.00;;;34.60
18219;BMP180;9234;49.344;11.120;2023-06-19T13:20:08;97315.00;;;34.20
18219;BMP180;9234;49.344;11.120;2023-06-19T13:22:36;97317.00;;;33.90
18219;BMP180;9234;49.344;11.120;2023-06-19T13:25:05;97308.00;;;33.60
18219;BMP180;9234;49.344;11.120;2023-06-19T13:27:35;97318.00;;;33.20
18219;BMP180;9234;49.344;11.120;2023-06-19T13:30:06;97323.00;;;32.70
18219;BMP180;9234;49.344;11.120;2023-06-19T13:32:35;97324.00;;;32.30
18219;BMP180;9234;49.344;11.120;2023-06-19T13:35:06;97345.00;;;32.10
18219;BMP180;9234;49.344;11.120;2023-06-19T13:37:37;97349.00;;;31.70
18219;BMP180;9234;49.344;11.120;2023-06-19T13:40:07;97349.00;;;31.20
18219;BMP180;9234;49.344;11.120;2023-06-19T13:42:38;97329.00;;;30.80
18219;BMP180;9234;49.344;11.120;2023-06-19T13:45:07;97320.00;;;30.60
18219;BMP180;9234;49.344;11.120;2023-06-19T13:47:36;97325.00;;;30.40
18219;BMP180;9234;49.344;11.120;2023-06-19T13:50:07;97342.00;;;30.50
18219;BMP180;9234;49.344;11.120;2023-06-19T13:52:36;97330.00;;;30.60
18219;BMP180;9234;49.344;11.120;2023-06-19T13:55:05;97329.00;;;30.80
18219;BMP180;9234;49.344;11.120;2023-06-19T13:57:33;97320.00;;;31.40
18219;BMP180;9234;49.344;11.120;2023-06-19T14:00:08;97333.00;;;31.60
18219;BMP180;9234;49.344;11.120;2023-06-19T14:02:41;97332.00;;;31.40
18219;BMP180;9234;49.344;11.120;2023-06-19T14:05:10;97334.00;;;31.20
18219;BMP180;9234;49.344;11.120;2023-06-19T14:07:41;97330.00;;;30.90
18219;BMP180;9234;49.344;11.120;2023-06-19T14:10:10;97322.00;;;30.70
18219;BMP180;9234;49.344;11.120;2023-06-19T14:12:38;97327.00;;;30.40
18219;BMP180;9234;49.344;11.120;2023-06-19T14:15:09;97329.00;;;30.30
18219;BMP180;9234;49.344;11.120;2023-06-19T14:17:38;97326.00;;;30.40
18219;BMP180;9234;49.344;11.120;2023-06-19T14:20:10;97328.00;;;30.80
18219;BMP180;9234;49.344;11.120;2023-06-19T14:22:42;97316.00;;;31.00
18219;BMP180;9234;49.344;11.120;2023-06-19T14:25:10;97317.00;;;30.90
18219;BMP180;9234;49.344;11.120;2023-06-19T14:27:39;97312.00;;;30.70